Time;durP1;ratioP1;P1;durP2;ratioP2;P2;SDS_P1;SDS_P2;PMS_P1;PMS_P2;Temp;Humidity;BMP_temperature;BMP_pressure;BME280_temperature;BME280_humidity;BME280_pressure;Samples;Min_cycle;Max_cycle;Signal;HPM_P1;HPM_P2
2021/11/02 00:01:25;;;;;;;18.07;17.10;;;7.10;99.90;;;;;;5029679;28;20965;-71
2021/11/02 00:03:52;;;;;;;22.43;18.40;;;7.20;99.90;;;;;;5036904;28;20461;-70
2021/11/02 00:06:20;;;;;;;18.90;17.70;;;7.10;99.90;;;;;;5037942;28;21003;-69
2021/11/02 00:08:47;;;;;;;19.80;18.40;;;7.10;99.90;;;;;;5033363;28;20456;-69
2021/11/02 00:11:14;;;;;;;19.07;17.67;;;7.10;99.90;;;;;;5034214;28;20787;-69
2021/11/02 00:13:51;;;;;;;18.40;17.23;;;7.10;99.90;;;;;;5035796;28;20927;-70
2021/11/02 00:16:22;;;;;;;18.07;16.87;;;7.10;99.90;;;;;;5036699;28;20815;-70
2021/11/02 00:18:57;;;;;;;19.13;17.83;;;7.10;99.90;;;;;;5033457;28;20491;-69
2021/11/02 00:21:25;;;;;;;19.23;17.80;;;7.10;99.90;;;;;;5040135;28;20463;-70
2021/11/02 00:23:58;;;;;;;18.57;17.17;;;7.00;99.90;;;;;;5032298;28;20475;-69
2021/11/02 00:26:26;;;;;;;18.53;17.33;;;7.00;99.90;;;;;;5031364;28;20543;-69
2021/11/02 00:28:54;;;;;;;19.50;18.10;;;7.00;99.90;;;;;;5034438;28;20876;-69
2021/11/02 00:31:21;;;;;;;18.47;17.20;;;6.90;99.90;;;;;;5038438;28;20453;-69
2021/11/02 00:33:49;;;;;;;19.60;18.10;;;6.80;99.90;;;;;;5038622;28;20475;-69
2021/11/02 00:36:16;;;;;;;19.20;18.10;;;6.80;99.90;;;;;;5030120;28;20470;-71
2021/11/02 00:38:43;;;;;;;18.83;17.50;;;6.80;99.90;;;;;;5036442;28;20600;-72
2021/11/02 00:41:09;;;;;;;19.43;18.30;;;6.70;99.90;;;;;;5034803;28;20836;-71
2021/11/02 00:43:37;;;;;;;19.77;18.30;;;6.70;99.90;;;;;;5036123;28;21337;-69
2021/11/02 00:46:06;;;;;;;19.10;17.87;;;6.60;99.90;;;;;;5040493;28;20456;-71
2021/11/02 00:48:33;;;;;;;19.53;18.23;;;6.50;99.90;;;;;;5036104;28;20535;-71
2021/11/02 00:51:00;;;;;;;20.57;18.90;;;6.50;99.90;;;;;;5034813;28;20465;-71
2021/11/02 00:53:29;;;;;;;19.47;18.27;;;6.50;99.90;;;;;;5037933;28;20465;-69
2021/11/02 00:55:56;;;;;;;18.90;17.70;;;6.40;99.90;;;;;;5041052;28;20460;-72
2021/11/02 00:58:25;;;;;;;19.07;17.97;;;6.40;99.90;;;;;;5043733;28;20492;-70
2021/11/02 01:00:52;;;;;;;19.73;18.53;;;6.40;99.90;;;;;;5038379;28;20506;-70
2021/11/02 01:03:21;;;;;;;19.53;18.30;;;6.30;99.90;;;;;;5039646;28;20477;-69
2021/11/02 01:05:48;;;;;;;18.60;17.30;;;6.30;99.90;;;;;;5030567;28;20463;-69
2021/11/02 01:08:16;;;;;;;19.20;18.00;;;6.30;99.90;;;;;;5039335;28;20463;-69
2021/11/02 01:10:47;;;;;;;18.23;17.23;;;6.30;99.90;;;;;;5037066;28;20980;-69
2021/11/02 01:13:16;;;;;;;19.07;17.73;;;6.30;99.90;;;;;;5040959;28;20483;-69
2021/11/02 01:15:43;;;;;;;19.13;18.13;;;6.40;99.90;;;;;;5040879;28;20493;-69
2021/11/02 01:18:11;;;;;;;18.07;17.00;;;6.30;99.90;;;;;;5040312;28;20557;-69
2021/11/02 01:20:40;;;;;;;17.70;16.70;;;6.30;99.90;;;;;;5038261;28;20496;-69
2021/11/02 01:23:08;;;;;;;17.53;16.53;;;6.30;99.90;;;;;;5041138;28;20492;-69
2021/11/02 01:25:36;;;;;;;18.37;17.27;;;6.30;99.90;;;;;;5039909;28;20974;-70
2021/11/02 01:28:03;;;;;;;18.40;17.30;;;6.30;99.90;;;;;;5036401;28;20463;-69
2021/11/02 01:30:30;;;;;;;18.27;17.13;;;6.30;99.90;;;;;;5043903;28;20489;-69
2021/11/02 01:33:00;;;;;;;18.07;16.97;;;6.20;99.90;;;;;;5033553;28;20482;-69
2021/11/02 01:35:28;;;;;;;18.63;17.53;;;6.20;99.90;;;;;;5034603;28;20486;-69
2021/11/02 01:37:58;;;;;;;18.00;17.00;;;6.10;99.90;;;;;;5034472;28;20515;-69
2021/11/02 01:40:24;;;;;;;19.60;18.13;;;6.10;99.90;;;;;;5041112;28;21020;-69
2021/11/02 01:42:52;;;;;;;18.97;17.77;;;6.10;99.90;;;;;;5041826;28;20478;-69
2021/11/02 01:45:21;;;;;;;18.70;17.80;;;6.00;99.90;;;;;;5038048;28;20461;-71
2021/11/02 01:47:49;;;;;;;19.37;18.17;;;6.00;99.90;;;;;;5040334;28;20958;-71
2021/11/02 01:50:17;;;;;;;19.10;18.10;;;6.00;99.90;;;;;;5037419;28;20475;-71
2021/11/02 01:52:44;;;;;;;19.20;18.20;;;6.00;99.90;;;;;;5039487;28;20545;-70
2021/11/02 01:55:14;;;;;;;19.60;18.30;;;5.90;99.90;;;;;;5038400;28;20459;-69
2021/11/02 01:57:43;;;;;;;19.33;18.13;;;5.80;99.90;;;;;;5038340;28;20963;-69
2021/11/02 02:00:12;;;;;;;19.70;18.50;;;5.60;99.90;;;;;;5037547;28;20497;-69
2021/11/02 02:02:47;;;;;;;19.87;18.67;;;5.50;99.90;;;;;;5042551;28;20468;-69
2021/11/02 02:05:27;;;;;;;19.60;18.50;;;5.40;99.90;;;;;;5033912;28;20483;-69
2021/11/02 02:08:05;;;;;;;18.80;17.90;;;5.40;99.90;;;;;;5038699;28;20913;-69
2021/11/02 02:10:41;;;;;;;19.77;18.70;;;5.40;99.90;;;;;;5037038;28;20457;-69
2021/11/02 02:13:17;;;;;;;20.20;19.00;;;5.30;99.90;;;;;;5040754;28;20952;-68
2021/11/02 02:15:52;;;;;;;19.60;18.50;;;5.20;99.90;;;;;;5035989;28;20485;-71
2021/11/02 02:18:25;;;;;;;20.20;18.80;;;5.20;99.90;;;;;;5038190;28;20488;-69
2021/11/02 02:21:12;;;;;;;20.23;18.50;;;5.10;99.90;;;;;;5039261;28;20496;-71
2021/11/02 02:24:01;;;;;;;20.60;19.37;;;5.10;99.90;;;;;;5025209;28;20457;-71
2021/11/02 02:26:39;;;;;;;19.63;18.50;;;5.10;99.90;;;;;;5033947;28;20466;-70
2021/11/02 02:29:10;;;;;;;19.60;18.50;;;5.00;99.90;;;;;;5039200;28;21051;-71
2021/11/02 02:31:42;;;;;;;19.80;18.70;;;5.00;99.90;;;;;;5037303;28;20464;-71
2021/11/02 02:34:12;;;;;;;19.37;18.30;;;5.00;99.90;;;;;;5038918;28;20462;-71
2021/11/02 02:36:41;;;;;;;19.57;18.50;;;5.10;99.90;;;;;;5046824;28;20456;-70
2021/11/02 02:39:10;;;;;;;18.97;17.97;;;5.10;99.90;;;;;;5036399;28;20551;-69
2021/11/02 02:41:41;;;;;;;19.10;18.00;;;5.10;99.90;;;;;;5039138;28;20567;-70
2021/11/02 02:44:10;;;;;;;19.03;17.83;;;5.20;99.90;;;;;;5039965;28;20490;-69
2021/11/02 02:46:39;;;;;;;18.93;17.93;;;5.20;99.90;;;;;;5039143;28;21052;-70
2021/11/02 02:49:09;;;;;;;18.67;17.67;;;5.30;99.90;;;;;;5044747;28;20853;-71
2021/11/02 02:51:36;;;;;;;18.67;17.53;;;5.30;99.90;;;;;;5036056;28;20467;-71
2021/11/02 02:54:06;;;;;;;18.60;17.60;;;5.30;99.90;;;;;;5032730;28;20551;-71
2021/11/02 02:56:34;;;;;;;18.50;17.60;;;5.30;99.90;;;;;;5040253;28;20464;-70
2021/11/02 02:59:02;;;;;;;19.50;18.13;;;5.40;99.90;;;;;;5042825;28;20456;-71
2021/11/02 03:01:31;;;;;;;18.80;17.83;;;5.40;99.90;;;;;;5040982;28;20491;-68
2021/11/02 03:04:04;;;;;;;19.20;18.00;;;5.30;99.90;;;;;;5033604;28;20475;-70
2021/11/02 03:06:41;;;;;;;18.77;17.77;;;5.30;99.90;;;;;;5033725;28;20460;-71
2021/11/02 03:09:10;;;;;;;19.80;18.30;;;5.20;99.90;;;;;;5035773;28;20483;-71
2021/11/02 03:11:39;;;;;;;18.13;17.23;;;5.20;99.90;;;;;;5037220;28;20975;-70
2021/11/02 03:14:11;;;;;;;18.77;17.77;;;5.20;99.90;;;;;;5039749;28;20825;-70
2021/11/02 03:16:51;;;;;;;19.63;18.33;;;5.20;99.90;;;;;;5038239;28;20463;-71
2021/11/02 03:44:59;;;;;;;21.27;19.63;;;5.50;99.90;;;;;;5040919;28;20602;-70
2021/11/02 03:50:41;;;;;;;20.30;19.00;;;5.60;99.90;;;;;;5034369;28;20492;-71
2021/11/02 03:56:01;;;;;;;20.03;18.63;;;5.50;99.90;;;;;;5038032;28;20526;-69
2021/11/02 03:58:34;;;;;;;21.00;19.40;;;5.60;99.90;;;;;;5033238;28;20468;-72
2021/11/02 04:35:00;;;;;;;21.03;19.70;;;5.50;99.90;;;;;;5037178;28;20514;-71
2021/11/02 05:08:13;;;;;;;21.03;19.53;;;5.10;99.90;;;;;;5039966;28;20467;-71
2021/11/02 05:11:09;;;;;;;22.77;20.27;;;5.20;99.90;;;;;;5040793;28;20519;-71
2021/11/02 05:14:02;;;;;;;22.10;20.27;;;5.20;99.90;;;;;;5039105;28;20474;-72
2021/11/02 05:46:56;;;;;;;20.43;18.77;;;5.00;99.90;;;;;;5010525;28;20458;-70
2021/11/02 05:49:36;;;;;;;19.97;18.40;;;5.00;99.90;;;;;;5035653;28;20774;-70
2021/11/02 05:52:28;;;;;;;21.90;19.90;;;5.00;99.90;;;;;;5032468;28;20468;-69
2021/11/02 05:55:12;;;;;;;21.07;19.33;;;5.00;99.90;;;;;;5033121;28;20569;-70
2021/11/02 05:57:45;;;;;;;20.17;18.83;;;5.00;99.90;;;;;;5036239;28;20460;-71
2021/11/02 06:00:16;;;;;;;20.13;18.77;;;4.90;99.90;;;;;;5035990;28;20514;-69
2021/11/02 06:05:44;;;;;;;20.07;18.63;;;4.90;99.90;;;;;;5041822;28;20597;-71
2021/11/02 06:08:48;;;;;;;20.37;19.00;;;5.00;99.90;;;;;;5034317;28;20463;-69
2021/11/02 06:28:44;;;;;;;21.23;19.77;;;4.70;99.90;;;;;;4989537;28;20463;-69
2021/11/02 06:31:14;;;;;;;22.03;19.63;;;4.80;99.90;;;;;;4996179;28;21027;-69
2021/11/02 06:33:48;;;;;;;22.07;20.40;;;4.80;99.90;;;;;;5016110;28;20823;-71
2021/11/02 06:39:31;;;;;;;31.20;20.50;;;4.80;99.90;;;;;;5041417;28;20606;-69
2021/11/02 06:42:12;;;;;;;22.23;20.40;;;4.90;99.90;;;;;;5037126;28;20541;-72
2021/11/02 06:50:23;;;;;;;21.13;19.40;;;5.00;99.90;;;;;;5038749;28;20459;-71
2021/11/02 06:59:22;;;;;;;21.87;19.77;;;5.00;99.90;;;;;;5038404;28;20522;-70
2021/11/02 07:18:58;;;;;;;20.27;18.43;;;5.50;99.90;;;;;;5035139;28;20495;-70
2021/11/02 07:21:30;;;;;;;20.50;18.50;;;5.60;99.90;;;;;;5036344;28;20494;-68
2021/11/02 07:24:02;;;;;;;20.30;18.03;;;5.70;99.90;;;;;;5034997;28;20460;-69
2021/11/02 07:26:45;;;;;;;21.13;19.17;;;5.90;99.90;;;;;;5039660;28;20457;-71
2021/11/02 07:29:45;;;;;;;21.90;17.07;;;5.90;99.90;;;;;;5033906;28;20467;-69
2021/11/02 08:45:22;;;;;;;17.53;16.13;;;8.70;99.90;;;;;;5038128;28;20508;-68
2021/11/02 08:47:50;;;;;;;19.17;17.43;;;8.80;99.90;;;;;;5034924;28;20471;-70
2021/11/02 08:50:20;;;;;;;19.40;17.57;;;8.70;99.90;;;;;;5037262;28;20828;-70
2021/11/02 08:52:50;;;;;;;20.70;17.90;;;8.80;99.90;;;;;;5028927;28;21200;-70
2021/11/02 08:55:19;;;;;;;21.67;19.90;;;8.90;99.90;;;;;;5035383;28;20477;-68
2021/11/02 08:57:47;;;;;;;21.73;20.07;;;8.90;99.90;;;;;;5036421;28;20464;-68
2021/11/02 09:00:16;;;;;;;22.23;20.53;;;8.90;99.90;;;;;;5029207;28;20472;-68
2021/11/02 09:02:48;;;;;;;23.37;21.37;;;8.90;99.90;;;;;;5030968;28;20472;-69
2021/11/02 09:05:23;;;;;;;34.53;25.07;;;8.80;99.90;;;;;;5035346;28;20487;-68
2021/11/02 09:07:52;;;;;;;26.10;23.60;;;8.80;99.90;;;;;;5032250;28;20475;-70
2021/11/02 09:10:21;;;;;;;29.87;24.80;;;8.90;99.90;;;;;;5038790;28;20585;-68
2021/11/02 09:12:50;;;;;;;25.67;23.40;;;8.60;99.90;;;;;;5041209;28;20468;-68
2021/11/02 09:15:23;;;;;;;26.30;23.63;;;8.50;99.90;;;;;;5031047;28;20502;-70
2021/11/02 09:17:53;;;;;;;26.53;23.97;;;8.40;99.90;;;;;;5034072;28;20482;-71
2021/11/02 09:20:24;;;;;;;28.13;23.53;;;8.40;99.90;;;;;;5029738;28;20796;-68
2021/11/02 09:22:52;;;;;;;31.87;23.33;;;8.50;99.90;;;;;;5031078;28;21056;-68
2021/11/02 09:25:20;;;;;;;26.60;23.27;;;8.40;99.90;;;;;;5036391;28;20469;-71
2021/11/02 09:27:49;;;;;;;26.97;23.93;;;8.50;99.90;;;;;;5040479;28;20969;-68
2021/11/02 09:30:18;;;;;;;28.50;25.57;;;8.60;99.90;;;;;;5037636;28;20463;-70
2021/11/02 09:32:47;;;;;;;30.17;23.63;;;8.80;99.90;;;;;;5038991;28;20472;-68
2021/11/02 09:35:15;;;;;;;25.20;22.77;;;8.80;99.90;;;;;;5029676;28;20462;-69
2021/11/02 09:37:47;;;;;;;24.53;22.47;;;8.70;99.90;;;;;;5034231;28;20629;-70
2021/11/02 09:40:40;;;;;;;27.27;24.57;;;8.90;99.90;;;;;;5035790;28;20473;-70
2021/11/02 09:43:51;;;;;;;24.67;22.43;;;9.00;99.90;;;;;;5033080;28;20453;-69
2021/11/02 09:46:43;;;;;;;26.80;22.33;;;9.20;99.90;;;;;;5006269;28;21224;-72
2021/11/02 09:49:58;;;;;;;24.57;22.60;;;9.40;99.90;;;;;;5004571;28;22500;-71
2021/11/02 09:53:27;;;;;;;24.80;22.80;;;9.50;99.90;;;;;;5037294;28;21132;-71
2021/11/02 09:56:03;;;;;;;23.63;22.03;;;9.60;99.90;;;;;;5033638;28;20991;-71
2021/11/02 09:59:08;;;;;;;23.80;21.90;;;9.80;99.90;;;;;;5042115;28;20496;-69
2021/11/02 10:01:48;;;;;;;23.33;21.50;;;9.90;99.90;;;;;;5031022;28;20503;-71
2021/11/02 10:05:02;;;;;;;24.20;21.93;;;9.90;99.90;;;;;;5034143;28;20464;-69
2021/11/02 10:08:07;;;;;;;24.57;22.40;;;10.00;99.90;;;;;;5037059;28;20467;-70
2021/11/02 10:10:41;;;;;;;24.13;21.73;;;10.20;99.90;;;;;;5032514;28;20483;-70
2021/11/02 10:13:20;;;;;;;24.40;21.90;;;10.10;99.90;;;;;;5038102;28;20467;-71
2021/11/02 10:15:57;;;;;;;24.80;22.27;;;10.30;99.90;;;;;;5038311;28;20538;-70
2021/11/02 10:18:50;;;;;;;26.13;23.67;;;10.40;99.90;;;;;;5026230;28;20546;-70
2021/11/02 10:21:53;;;;;;;27.10;24.50;;;10.50;99.90;;;;;;5037865;28;20483;-70
2021/11/02 10:24:56;;;;;;;23.37;20.90;;;10.40;99.90;;;;;;5036434;28;20470;-69
2021/11/02 10:27:33;;;;;;;22.93;20.83;;;10.40;99.90;;;;;;5036513;28;20464;-72
2021/11/02 10:30:32;;;;;;;22.40;20.20;;;10.40;99.90;;;;;;5039192;28;20475;-70
2021/11/02 10:33:03;;;;;;;22.13;20.33;;;10.50;99.90;;;;;;5036824;28;20464;-71
2021/11/02 10:35:41;;;;;;;22.23;20.43;;;10.60;99.90;;;;;;5032915;28;20472;-70
2021/11/02 10:38:11;;;;;;;21.27;19.57;;;10.50;99.90;;;;;;5036755;28;21028;-70
2021/11/02 10:40:52;;;;;;;20.97;19.47;;;10.50;99.90;;;;;;5029348;28;21141;-70
2021/11/02 10:44:02;;;;;;;20.77;19.30;;;10.60;99.90;;;;;;5038462;28;20472;-71
2021/11/02 10:46:33;;;;;;;21.40;19.80;;;10.70;99.90;;;;;;5035437;28;20461;-69
2021/11/02 10:49:08;;;;;;;23.03;20.50;;;10.80;99.90;;;;;;5029865;28;20463;-70
2021/11/02 10:51:43;;;;;;;24.00;21.70;;;10.60;99.90;;;;;;5034304;28;20966;-68
2021/11/02 10:54:21;;;;;;;23.93;21.93;;;10.50;99.90;;;;;;5032412;28;21242;-69
2021/11/02 10:57:25;;;;;;;24.27;22.13;;;10.40;99.90;;;;;;5036147;28;20462;-70
2021/11/02 10:59:56;;;;;;;25.07;22.00;;;10.30;99.90;;;;;;5028872;28;20466;-69
2021/11/02 11:02:26;;;;;;;25.93;22.07;;;10.30;99.90;;;;;;5035096;28;20495;-69
2021/11/02 11:04:56;;;;;;;25.30;22.80;;;10.30;99.90;;;;;;5040458;28;20463;-71
2021/11/02 11:07:24;;;;;;;24.73;22.10;;;10.40;99.90;;;;;;5032159;28;20459;-71
2021/11/02 11:09:53;;;;;;;25.73;21.90;;;10.30;99.90;;;;;;5030697;28;20476;-70
2021/11/02 11:12:22;;;;;;;24.40;21.80;;;10.30;99.90;;;;;;5032262;28;20815;-71
2021/11/02 11:14:54;;;;;;;24.07;21.70;;;10.30;99.90;;;;;;5029936;28;20467;-69
2021/11/02 11:17:28;;;;;;;22.93;20.93;;;10.40;99.90;;;;;;5032354;28;20474;-69
2021/11/02 11:20:03;;;;;;;23.60;21.47;;;10.60;99.90;;;;;;5032562;28;20856;-70
2021/11/02 11:22:38;;;;;;;23.30;21.50;;;10.70;99.90;;;;;;5037625;28;21255;-70
2021/11/02 11:25:08;;;;;;;23.17;20.90;;;11.00;99.90;;;;;;5035707;28;20862;-71
2021/11/02 11:27:38;;;;;;;32.53;20.10;;;11.10;99.90;;;;;;5038834;28;20470;-70
2021/11/02 11:30:08;;;;;;;24.10;20.20;;;11.10;99.90;;;;;;5035031;28;20514;-69
2021/11/02 11:32:38;;;;;;;22.93;21.00;;;11.20;99.90;;;;;;5032657;28;20916;-69
2021/11/02 11:35:05;;;;;;;22.80;20.40;;;11.10;99.90;;;;;;5035715;28;20811;-72
2021/11/02 11:37:38;;;;;;;22.83;20.17;;;11.40;99.90;;;;;;5034975;28;20880;-71
2021/11/02 11:40:08;;;;;;;20.73;19.33;;;11.70;99.90;;;;;;5037710;28;20470;-71
2021/11/02 11:42:37;;;;;;;22.63;20.27;;;11.80;99.90;;;;;;5032531;28;20558;-70
2021/11/02 11:45:08;;;;;;;20.90;19.40;;;11.70;99.90;;;;;;5040729;28;20460;-69
2021/11/02 11:47:36;;;;;;;21.10;19.60;;;11.80;99.90;;;;;;5037353;28;20550;-72
2021/11/02 11:50:21;;;;;;;22.70;21.00;;;11.70;99.90;;;;;;5038833;28;20474;-70
2021/11/02 11:52:50;;;;;;;21.40;19.70;;;11.70;99.90;;;;;;5030751;28;20474;-70
2021/11/02 11:55:27;;;;;;;21.07;19.27;;;11.80;99.90;;;;;;5037559;28;20517;-72
2021/11/02 11:58:07;;;;;;;20.90;19.40;;;11.80;99.90;;;;;;5037507;28;20471;-71
2021/11/02 12:00:35;;;;;;;23.53;19.93;;;11.90;99.90;;;;;;5035434;28;20953;-72
2021/11/02 12:03:05;;;;;;;21.47;19.47;;;12.00;99.90;;;;;;5032604;28;20857;-71
2021/11/02 12:05:41;;;;;;;22.07;19.97;;;12.10;99.90;;;;;;5028818;28;20487;-70
2021/11/02 12:08:16;;;;;;;22.70;20.70;;;12.20;99.90;;;;;;5025098;28;20463;-73
2021/11/02 12:10:44;;;;;;;21.67;20.07;;;12.20;99.90;;;;;;5034874;28;20767;-72
2021/11/02 12:13:14;;;;;;;20.70;19.30;;;12.30;99.90;;;;;;5037773;28;20883;-71
2021/11/02 12:15:49;;;;;;;20.73;19.23;;;12.10;99.90;;;;;;5036886;28;20464;-70
2021/11/02 12:18:20;;;;;;;22.03;19.90;;;12.20;99.90;;;;;;5036591;28;20514;-72
2021/11/02 12:20:52;;;;;;;22.50;20.27;;;12.10;99.90;;;;;;5030720;28;20465;-70
2021/11/02 12:23:35;;;;;;;22.10;20.10;;;12.10;99.90;;;;;;5031081;28;20485;-69
2021/11/02 12:26:04;;;;;;;26.27;20.50;;;12.20;99.90;;;;;;5028091;28;20460;-71
2021/11/02 12:28:35;;;;;;;21.17;19.37;;;12.30;99.90;;;;;;5033696;28;20461;-69
2021/11/02 12:31:03;;;;;;;26.57;20.80;;;12.30;99.90;;;;;;5034150;28;20550;-71
2021/11/02 12:33:30;;;;;;;22.63;20.27;;;12.30;99.90;;;;;;5032454;28;20465;-71
2021/11/02 12:36:02;;;;;;;21.87;19.83;;;12.20;99.90;;;;;;5035852;28;20468;-70
2021/11/02 12:38:31;;;;;;;20.83;19.33;;;12.10;99.90;;;;;;5038796;28;20493;-70
2021/11/02 12:40:59;;;;;;;21.00;19.23;;;12.10;99.90;;;;;;5034636;28;21151;-70
2021/11/02 12:43:27;;;;;;;26.93;19.43;;;12.30;99.90;;;;;;5030895;28;20503;-73
2021/11/02 12:45:58;;;;;;;21.03;19.10;;;12.20;99.90;;;;;;5035169;28;20459;-70
2021/11/02 12:48:26;;;;;;;22.03;20.20;;;12.40;99.90;;;;;;5037734;28;20467;-72
2021/11/02 12:50:55;;;;;;;21.73;19.77;;;12.30;99.90;;;;;;5027882;28;20464;-71
2021/11/02 12:53:22;;;;;;;20.77;19.13;;;12.10;99.90;;;;;;5027047;28;20477;-70
2021/11/02 12:55:50;;;;;;;21.00;19.10;;;12.20;99.90;;;;;;5032481;28;20471;-71
2021/11/02 12:58:20;;;;;;;21.10;19.60;;;12.20;99.90;;;;;;5029973;28;21076;-72
2021/11/02 13:00:51;;;;;;;20.23;18.83;;;12.30;99.90;;;;;;5035938;28;20534;-70
2021/11/02 13:03:25;;;;;;;21.30;19.47;;;12.20;99.90;;;;;;5034995;28;20491;-70
2021/11/02 13:05:58;;;;;;;21.03;19.07;;;12.20;99.90;;;;;;5031063;28;20555;-71
2021/11/02 13:08:35;;;;;;;20.70;19.00;;;12.50;99.90;;;;;;5039503;28;21088;-74
2021/11/02 13:11:07;;;;;;;19.10;17.77;;;12.80;99.90;;;;;;5038113;28;20609;-69
2021/11/02 13:13:54;;;;;;;18.63;16.90;;;13.30;99.90;;;;;;5043092;28;20844;-70
2021/11/02 13:16:21;;;;;;;18.23;17.03;;;13.20;99.90;;;;;;5037822;28;20459;-73
2021/11/02 13:18:50;;;;;;;18.00;16.87;;;12.80;99.90;;;;;;5039191;28;20530;-70
2021/11/02 13:21:23;;;;;;;19.00;17.70;;;12.60;99.90;;;;;;5035224;28;20463;-69
2021/11/02 13:24:03;;;;;;;18.80;17.20;;;12.40;99.90;;;;;;5034962;28;20897;-73
2021/11/02 13:26:32;;;;;;;18.50;17.13;;;12.20;99.90;;;;;;5035382;28;20467;-70
2021/11/02 13:29:10;;;;;;;24.50;17.40;;;12.20;99.90;;;;;;5035157;28;20977;-70
2021/11/02 13:31:38;;;;;;;17.20;16.10;;;12.00;99.90;;;;;;5037177;28;20459;-70
2021/11/02 13:34:08;;;;;;;18.17;16.80;;;11.90;99.90;;;;;;5037561;28;20470;-73
2021/11/02 13:36:36;;;;;;;17.90;16.63;;;11.80;99.90;;;;;;5039592;28;20838;-72
2021/11/02 13:39:05;;;;;;;18.20;16.43;;;11.70;99.90;;;;;;5040520;28;20491;-70
2021/11/02 13:41:33;;;;;;;18.10;16.90;;;11.50;99.90;;;;;;5041022;28;20468;-72
2021/11/02 13:44:04;;;;;;;19.13;17.20;;;11.60;99.90;;;;;;5039241;28;20470;-70
2021/11/02 13:46:33;;;;;;;17.87;16.40;;;11.60;99.90;;;;;;5037495;28;20946;-70
2021/11/02 13:49:02;;;;;;;16.90;15.70;;;11.40;99.90;;;;;;5038652;28;20461;-69
2021/11/02 13:51:30;;;;;;;18.50;16.87;;;11.40;99.90;;;;;;5035094;28;20464;-73
2021/11/02 13:53:58;;;;;;;17.17;15.70;;;11.30;99.90;;;;;;5039671;28;20473;-70
2021/11/02 13:56:26;;;;;;;17.37;16.27;;;11.40;99.90;;;;;;5038050;28;20463;-70
2021/11/02 13:58:54;;;;;;;16.60;15.40;;;11.40;99.90;;;;;;5034107;28;20957;-70
2021/11/02 14:01:26;;;;;;;24.53;18.87;;;11.30;99.90;;;;;;5034028;28;20466;-69
2021/11/02 14:04:00;;;;;;;20.90;19.50;;;11.40;99.90;;;;;;5034770;28;20497;-70
2021/11/02 14:06:30;;;;;;;21.70;20.10;;;11.30;99.90;;;;;;5038062;28;20872;-69
2021/11/02 14:08:59;;;;;;;39.10;26.30;;;11.20;99.90;;;;;;5037321;28;20490;-68
2021/11/02 14:11:30;;;;;;;25.57;23.50;;;11.30;99.90;;;;;;5032402;28;20479;-70
2021/11/02 14:13:58;;;;;;;27.47;24.90;;;10.90;99.90;;;;;;5033461;28;20467;-69
2021/11/02 14:16:35;;;;;;;23.63;22.13;;;10.30;99.90;;;;;;5034556;28;20839;-71
2021/11/02 14:19:03;;;;;;;21.70;20.30;;;9.90;99.90;;;;;;5034867;28;20986;-70
2021/11/02 14:21:51;;;;;;;22.07;20.53;;;9.70;99.90;;;;;;5036590;28;20492;-70
2021/11/02 14:24:30;;;;;;;23.03;20.87;;;9.50;99.90;;;;;;5036812;28;20496;-70
2021/11/02 14:26:58;;;;;;;20.70;19.33;;;9.50;99.90;;;;;;5033057;28;20469;-70
2021/11/02 14:30:00;;;;;;;19.10;18.10;;;9.60;99.90;;;;;;5036195;28;20701;-70
2021/11/02 14:32:50;;;;;;;19.33;18.33;;;9.60;99.90;;;;;;5023045;28;20818;-71
2021/11/02 14:35:40;;;;;;;19.80;18.60;;;10.10;99.90;;;;;;5032534;28;20550;-72
2021/11/02 14:38:11;;;;;;;20.97;19.80;;;10.10;99.90;;;;;;5037006;28;20495;-71
2021/11/02 14:40:40;;;;;;;21.10;20.00;;;10.10;99.90;;;;;;5039324;28;20471;-70
2021/11/02 14:43:23;;;;;;;20.23;19.10;;;10.10;99.90;;;;;;5038922;28;20500;-70
2021/11/02 14:45:51;;;;;;;19.43;18.43;;;10.00;99.90;;;;;;5042742;28;20468;-70
2021/11/02 14:48:50;;;;;;;17.70;16.90;;;10.00;99.90;;;;;;5032562;28;20466;-68
2021/11/02 14:51:28;;;;;;;18.47;17.37;;;10.30;99.90;;;;;;5036151;28;20493;-71
2021/11/02 14:54:20;;;;;;;19.13;18.13;;;10.60;99.90;;;;;;5034698;28;20552;-69
2021/11/02 14:56:47;;;;;;;19.13;18.07;;;10.60;99.90;;;;;;5028332;28;20477;-68
2021/11/02 14:59:20;;;;;;;20.20;18.40;;;10.60;99.90;;;;;;5036559;28;20475;-71
2021/11/02 15:02:15;;;;;;;19.80;18.70;;;10.50;99.90;;;;;;5033181;28;20565;-71
2021/11/02 15:04:43;;;;;;;20.40;19.20;;;10.40;99.90;;;;;;5038324;28;20727;-71
2021/11/02 15:07:12;;;;;;;21.63;19.57;;;10.40;99.90;;;;;;5034776;28;20478;-71
2021/11/02 15:09:41;;;;;;;20.20;19.00;;;10.40;99.90;;;;;;5033500;28;20535;-70
2021/11/02 15:12:09;;;;;;;20.43;19.30;;;10.30;99.90;;;;;;5037012;28;20471;-68
2021/11/02 15:14:39;;;;;;;20.83;19.60;;;10.20;99.90;;;;;;5034890;28;20919;-68
2021/11/02 15:17:08;;;;;;;20.30;19.30;;;10.00;99.90;;;;;;5039808;28;20888;-71
2021/11/02 15:19:38;;;;;;;21.33;19.67;;;9.90;99.90;;;;;;5035460;28;20489;-69
2021/11/02 15:22:08;;;;;;;21.37;20.07;;;9.90;99.90;;;;;;5035718;28;20465;-71
2021/11/02 15:24:37;;;;;;;21.27;19.97;;;9.80;99.90;;;;;;5027601;28;20464;-71
2021/11/02 15:27:08;;;;;;;21.40;20.10;;;9.70;99.90;;;;;;5041155;28;20550;-69
2021/11/02 15:29:38;;;;;;;21.07;19.87;;;9.70;99.90;;;;;;5040056;28;20456;-69
2021/11/02 15:32:17;;;;;;;22.50;21.10;;;9.60;99.90;;;;;;5033205;28;20465;-72
2021/11/02 15:34:46;;;;;;;21.40;20.10;;;9.60;99.90;;;;;;5032237;28;20457;-69
2021/11/02 15:37:16;;;;;;;21.10;19.80;;;9.60;99.90;;;;;;5028836;28;20458;-72
2021/11/02 15:39:43;;;;;;;21.47;20.27;;;9.50;99.90;;;;;;5021946;28;20463;-69
2021/11/02 15:42:31;;;;;;;22.50;21.13;;;9.50;99.90;;;;;;5028781;28;20513;-72
2021/11/02 15:45:00;;;;;;;22.80;21.30;;;9.50;99.90;;;;;;5029729;28;20482;-69
2021/11/02 15:47:29;;;;;;;23.30;21.33;;;9.50;99.90;;;;;;5032324;28;20566;-70
2021/11/02 15:50:01;;;;;;;23.67;21.77;;;9.60;99.90;;;;;;5035347;28;20467;-69
2021/11/02 15:52:30;;;;;;;24.43;22.70;;;9.50;99.90;;;;;;5028090;28;20494;-69
2021/11/02 15:55:02;;;;;;;23.67;22.07;;;9.50;99.90;;;;;;5032556;28;20475;-73
2021/11/02 15:57:38;;;;;;;22.17;20.63;;;9.40;99.90;;;;;;5027153;28;20791;-72
2021/11/02 16:00:07;;;;;;;22.43;20.90;;;9.50;99.90;;;;;;5037234;28;20539;-71
2021/11/02 16:02:35;;;;;;;23.30;21.40;;;9.40;99.90;;;;;;5029120;28;20467;-70
2021/11/02 16:05:05;;;;;;;23.47;21.87;;;9.30;99.90;;;;;;5032275;28;20470;-70
2021/11/02 16:07:33;;;;;;;23.83;22.13;;;9.40;99.90;;;;;;5030444;28;20970;-71
2021/11/02 16:10:00;;;;;;;23.20;21.60;;;9.40;99.90;;;;;;5034177;28;20458;-72
2021/11/02 16:12:32;;;;;;;26.10;24.20;;;9.30;99.90;;;;;;5036676;28;20468;-69
2021/11/02 16:15:03;;;;;;;24.73;22.73;;;9.30;99.90;;;;;;5030979;28;20472;-69
2021/11/02 16:17:31;;;;;;;24.90;22.80;;;9.30;99.90;;;;;;5029804;28;20474;-72
2021/11/02 16:19:59;;;;;;;23.87;22.00;;;9.30;99.90;;;;;;5028715;28;20885;-71
2021/11/02 16:22:27;;;;;;;25.20;23.40;;;9.20;99.90;;;;;;5039549;28;20458;-69
2021/11/02 16:25:09;;;;;;;24.70;22.90;;;9.10;99.90;;;;;;5037814;28;20468;-69
2021/11/02 16:27:39;;;;;;;24.40;22.77;;;8.90;99.90;;;;;;5036766;28;20466;-69
2021/11/02 16:30:19;;;;;;;25.43;23.63;;;8.90;99.90;;;;;;5035978;28;20505;-68
2021/11/02 16:32:49;;;;;;;24.80;23.00;;;8.90;99.90;;;;;;5041727;28;20973;-69
2021/11/02 16:35:43;;;;;;;24.43;22.77;;;8.90;99.90;;;;;;5042090;28;20464;-69
2021/11/02 16:38:29;;;;;;;24.67;22.97;;;8.80;99.90;;;;;;5041837;28;20535;-70
2021/11/02 16:40:59;;;;;;;24.47;22.37;;;8.80;99.90;;;;;;5041948;28;20454;-68
2021/11/02 16:43:34;;;;;;;23.60;21.37;;;8.80;99.90;;;;;;5039231;28;20492;-68
2021/11/02 16:46:03;;;;;;;23.90;22.30;;;8.70;99.90;;;;;;5039491;28;20463;-69
2021/11/02 16:48:42;;;;;;;25.93;23.73;;;8.70;99.90;;;;;;5041209;28;20489;-70
2021/11/02 16:51:10;;;;;;;25.27;23.50;;;8.60;99.90;;;;;;5042244;28;21104;-69
2021/11/02 16:53:37;;;;;;;26.47;24.57;;;8.50;99.90;;;;;;5042355;28;21083;-70
2021/11/02 16:56:15;;;;;;;25.90;23.90;;;8.50;99.90;;;;;;5037544;28;20458;-72
2021/11/02 16:58:49;;;;;;;23.50;22.00;;;8.40;99.90;;;;;;5038588;28;20473;-69
2021/11/02 17:01:36;;;;;;;24.00;22.40;;;8.40;99.90;;;;;;5036016;28;20467;-69
2021/11/02 17:04:13;;;;;;;23.73;22.13;;;8.30;99.90;;;;;;5038857;28;20494;-69
2021/11/02 17:06:41;;;;;;;25.13;23.03;;;8.30;99.90;;;;;;5045373;28;20457;-72
2021/11/02 17:09:17;;;;;;;24.33;22.73;;;8.30;99.90;;;;;;5035841;28;20464;-71
2021/11/02 17:11:53;;;;;;;24.07;22.43;;;8.20;99.90;;;;;;5042546;28;20463;-71
2021/11/02 17:14:22;;;;;;;25.27;23.33;;;8.30;99.90;;;;;;5041898;28;20590;-69
2021/11/02 17:16:57;;;;;;;24.87;22.97;;;8.30;99.90;;;;;;5039814;28;20459;-71
2021/11/02 17:19:25;;;;;;;25.60;23.70;;;8.30;99.90;;;;;;5037427;28;20729;-69